createdAt,value
2023-05-01T00:01:44.040Z,98594.66
2023-05-01T00:04:11.898Z,98600.31
2023-05-01T00:06:39.857Z,98599.28
2023-05-01T00:09:07.485Z,98601.59
2023-05-01T00:11:37.668Z,98579.38
2023-05-01T00:14:05.322Z,98604.78
2023-05-01T00:16:32.913Z,98606.91
2023-05-01T00:19:00.496Z,98597.53
2023-05-01T00:21:28.687Z,98609.25
2023-05-01T00:23:56.159Z,98605.25
2023-05-01T00:26:26.537Z,98603.81
2023-05-01T00:28:54.521Z,98616.56
2023-05-01T00:31:22.047Z,98602.19
2023-05-01T00:33:49.661Z,98613.88
2023-05-01T00:36:17.395Z,98617.19
2023-05-01T00:38:46.615Z,98609.38
2023-05-01T00:41:14.127Z,98610.94
2023-05-01T00:43:41.628Z,98620.19
2023-05-01T00:46:10.318Z,98624.66
2023-05-01T00:48:37.924Z,98645.97
2023-05-01T00:51:07.908Z,98615.88
2023-05-01T00:53:35.840Z,98654.00
2023-05-01T00:56:04.560Z,98645.78
2023-05-01T00:58:32.205Z,98641.63
2023-05-01T01:00:59.937Z,98646.25
2023-05-01T01:03:28.237Z,98643.53
2023-05-01T01:06:05.233Z,98643.97
2023-05-01T01:08:55.648Z,98640.31
2023-05-01T01:12:01.581Z,98653.72
2023-05-01T01:14:36.993Z,98651.66
2023-05-01T01:17:07.463Z,98647.88
2023-05-01T01:19:54.047Z,98648.41
2023-05-01T01:22:24.861Z,98661.19
2023-05-01T01:25:33.817Z,98672.28
2023-05-01T01:28:16.703Z,98658.31
2023-05-01T01:30:53.002Z,98665.53
2023-05-01T01:33:50.283Z,98668.88
2023-05-01T01:36:40.546Z,98670.19
2023-05-01T01:39:31.688Z,98678.34
2023-05-01T01:42:03.466Z,98672.28
2023-05-01T01:44:47.870Z,98671.75
2023-05-01T01:47:17.240Z,98679.06
2023-05-01T01:49:50.161Z,98698.84
2023-05-01T01:52:19.247Z,98694.41
2023-05-01T01:55:01.079Z,98688.72
2023-05-01T01:57:31.886Z,98693.72
2023-05-01T01:59:59.470Z,98690.47
2023-05-01T02:02:29.929Z,98709.88
2023-05-01T02:04:59.919Z,98688.16
2023-05-01T02:07:29.860Z,98681.63
2023-05-01T02:09:58.451Z,98695.75
2023-05-01T02:12:27.569Z,98689.00
2023-05-01T02:14:55.933Z,98716.50
2023-05-01T02:17:24.521Z,98696.75
2023-05-01T02:19:55.568Z,98693.88
2023-05-01T02:22:26.257Z,98691.78
2023-05-01T02:24:56.852Z,98689.06
2023-05-01T02:27:27.073Z,98688.63
2023-05-01T02:29:55.194Z,98688.47
2023-05-01T02:32:23.010Z,98692.72
2023-05-01T02:34:50.845Z,98702.16
2023-05-01T02:37:18.461Z,98698.13
2023-05-01T02:39:47.118Z,98695.75
2023-05-01T02:42:16.958Z,98690.03
2023-05-01T02:45:06.299Z,98702.47
2023-05-01T02:47:41.711Z,98710.28
2023-05-01T02:50:10.454Z,98720.06
2023-05-01T02:52:38.851Z,98706.06
2023-05-01T02:55:32.521Z,98695.97
2023-05-01T02:58:00.719Z,98697.34
2023-05-01T03:00:28.396Z,98701.88
2023-05-01T03:02:56.130Z,98706.78
2023-05-01T03:05:23.903Z,98700.75
2023-05-01T03:07:51.747Z,98716.03
2023-05-01T03:10:19.378Z,98708.81
2023-05-01T03:12:47.611Z,98719.06
2023-05-01T03:15:15.186Z,98729.53
2023-05-01T03:17:43.038Z,98712.19
2023-05-01T03:20:11.182Z,98754.91
2023-05-01T03:22:39.687Z,98742.72
2023-05-01T03:25:08.020Z,98725.78
2023-05-01T03:27:35.647Z,98727.56
2023-05-01T03:30:04.828Z,98731.06
2023-05-01T03:32:37.639Z,98734.88
2023-05-01T03:35:09.435Z,98756.16
2023-05-01T03:37:37.773Z,98744.47
2023-05-01T03:40:05.955Z,98751.25
2023-05-01T03:43:09.052Z,98748.22
2023-05-01T03:45:36.621Z,98756.72
2023-05-01T03:48:04.523Z,98762.06
2023-05-01T03:50:32.513Z,98746.88
2023-05-01T03:52:59.996Z,98751.59
2023-05-01T03:55:27.615Z,98778.31
2023-05-01T03:57:55.191Z,98747.38
2023-05-01T04:00:24.506Z,98755.59
2023-05-01T04:02:52.986Z,98757.22
2023-05-01T04:05:24.400Z,98748.25
2023-05-01T04:07:54.736Z,98739.91
2023-05-01T04:10:22.454Z,98748.28
2023-05-01T04:12:57.746Z,98737.63
2023-05-01T04:15:25.540Z,98757.81
2023-05-01T04:17:54.457Z,98723.03
2023-05-01T04:20:22.849Z,98762.00
2023-05-01T04:22:50.426Z,98733.44
2023-05-01T04:25:18.615Z,98747.72
2023-05-01T04:27:48.901Z,98750.09
2023-05-01T04:30:16.924Z,98742.25
2023-05-01T04:32:44.987Z,98744.03
2023-05-01T04:35:13.279Z,98744.81
2023-05-01T04:37:43.711Z,98732.81
2023-05-01T04:40:12.237Z,98769.63
2023-05-01T04:42:41.142Z,98761.56
2023-05-01T04:45:12.495Z,98750.03
2023-05-01T04:47:40.928Z,98741.66
2023-05-01T04:50:09.247Z,98742.22
2023-05-01T04:52:36.859Z,98729.69
2023-05-01T04:55:05.588Z,98734.22
2023-05-01T04:57:36.805Z,98734.91
2023-05-01T05:00:08.236Z,98721.31
2023-05-01T05:02:46.587Z,98737.53
2023-05-01T05:05:15.927Z,98729.72
2023-05-01T05:07:43.459Z,98723.28
2023-05-01T05:10:31.388Z,98741.97
2023-05-01T05:13:19.098Z,98747.19
2023-05-01T05:15:50.124Z,98738.81
2023-05-01T05:18:21.211Z,98743.00
2023-05-01T05:20:48.956Z,98735.03
2023-05-01T05:23:16.736Z,98719.13
2023-05-01T05:25:44.297Z,98743.09
2023-05-01T05:28:11.853Z,98741.88
2023-05-01T05:30:40.525Z,98746.25
2023-05-01T05:33:10.133Z,98734.34
2023-05-01T05:35:37.788Z,98741.34
2023-05-01T05:38:05.311Z,98730.88
2023-05-01T05:40:36.800Z,98741.66
2023-05-01T05:43:05.356Z,98762.81
2023-05-01T05:45:37.831Z,98737.53
2023-05-01T05:48:06.325Z,98733.69
2023-05-01T05:50:39.450Z,98733.31
2023-05-01T05:53:07.665Z,98745.09
2023-05-01T05:55:35.085Z,98723.78
2023-05-01T05:58:04.691Z,98727.47
2023-05-01T06:00:32.647Z,98746.94
2023-05-01T06:03:04.905Z,98758.91
2023-05-01T06:05:34.601Z,98729.06
2023-05-01T06:08:02.163Z,98735.38
2023-05-01T06:10:29.669Z,98724.84
2023-05-01T06:13:05.998Z,98743.56
2023-05-01T06:15:44.011Z,98743.34
2023-05-01T06:18:12.272Z,98723.63
2023-05-01T06:20:40.170Z,98731.16
2023-05-01T06:23:09.895Z,98727.34
2023-05-01T06:25:56.217Z,98719.00
2023-05-01T06:28:23.855Z,98729.50
2023-05-01T06:30:51.444Z,98732.56
2023-05-01T06:33:20.322Z,98747.25
2023-05-01T06:36:00.201Z,98747.41
2023-05-01T06:38:28.024Z,98752.81
2023-05-01T06:40:55.990Z,98746.72
2023-05-01T06:43:23.511Z,98737.66
2023-05-01T06:45:54.035Z,98724.47
2023-05-01T06:48:22.067Z,98732.53
2023-05-01T06:50:49.910Z,98727.34
2023-05-01T06:53:17.521Z,98744.41
2023-05-01T06:55:45.029Z,98745.22
2023-05-01T06:58:22.771Z,98729.50
2023-05-01T07:00:53.005Z,98727.94
2023-05-01T07:03:20.655Z,98731.88
2023-05-01T07:05:48.163Z,98747.19
2023-05-01T07:08:15.666Z,98725.81
2023-05-01T07:10:43.205Z,98734.53
2023-05-01T07:13:10.833Z,98709.66
2023-05-01T07:15:38.399Z,98699.94
2023-05-01T07:18:08.848Z,98705.09
2023-05-01T07:20:36.595Z,98694.03
2023-05-01T07:23:07.339Z,98696.06
2023-05-01T07:25:35.519Z,98717.50
2023-05-01T07:28:04.816Z,98678.34
2023-05-01T07:30:33.388Z,98693.38
2023-05-01T07:33:00.968Z,98699.16
2023-05-01T07:35:28.743Z,98695.78
2023-05-01T07:37:56.230Z,98737.19
2023-05-01T07:40:23.692Z,98712.66
2023-05-01T07:42:53.845Z,98678.63
2023-05-01T07:45:22.160Z,98697.16
2023-05-01T07:47:50.346Z,98693.19
2023-05-01T07:50:18.265Z,98699.56
2023-05-01T07:52:45.806Z,98706.13
2023-05-01T07:55:13.686Z,98688.00
2023-05-01T07:57:41.105Z,98709.75
2023-05-01T08:00:09.554Z,98709.75
2023-05-01T08:02:43.765Z,98708.88
2023-05-01T08:05:11.596Z,98718.16
2023-05-01T08:07:39.023Z,98718.19
2023-05-01T08:10:07.014Z,98723.59
2023-05-01T08:12:34.634Z,98717.78
2023-05-01T08:15:02.247Z,98723.91
2023-05-01T08:17:30.460Z,98732.31
2023-05-01T08:19:58.260Z,98744.00
2023-05-01T08:22:25.853Z,98747.75
2023-05-01T08:24:53.426Z,98738.16
2023-05-01T08:27:20.942Z,98748.06
2023-05-01T08:29:48.561Z,98732.25
2023-05-01T08:32:17.652Z,98727.38
2023-05-01T08:34:45.189Z,98722.13
2023-05-01T08:37:12.732Z,98711.38
2023-05-01T08:39:40.224Z,98703.06
2023-05-01T08:42:09.027Z,98716.75
2023-05-01T08:44:39.542Z,98706.84
2023-05-01T08:47:17.534Z,98717.06
2023-05-01T08:49:46.416Z,98738.47
2023-05-01T08:52:15.732Z,98714.28
2023-05-01T08:54:44.908Z,98705.09
2023-05-01T08:57:13.077Z,98707.81
2023-05-01T08:59:41.404Z,98698.41
2023-05-01T09:02:10.737Z,98709.66
2023-05-01T09:04:40.976Z,98712.00
2023-05-01T09:07:09.724Z,98704.44
2023-05-01T09:09:37.494Z,98707.22
2023-05-01T09:12:14.204Z,98734.69
2023-05-01T09:14:41.802Z,98712.97
2023-05-01T09:17:09.796Z,98742.41
2023-05-01T09:19:37.351Z,98726.50
2023-05-01T09:22:04.951Z,98726.06
2023-05-01T09:24:33.525Z,98734.34
2023-05-01T09:27:02.080Z,98727.09
2023-05-01T09:29:44.248Z,98738.00
2023-05-01T09:32:23.800Z,98710.56
2023-05-01T09:34:52.672Z,98706.03
2023-05-01T09:37:30.329Z,98714.72
2023-05-01T09:40:08.866Z,98702.09
2023-05-01T09:42:41.470Z,98709.13
2023-05-01T09:45:19.540Z,98695.97
2023-05-01T09:47:47.642Z,98724.66
2023-05-01T09:50:31.484Z,98699.50
2023-05-01T09:53:01.193Z,98701.97
2023-05-01T09:55:28.796Z,98690.78
2023-05-01T09:57:56.236Z,98682.06
2023-05-01T10:00:23.697Z,98683.66
2023-05-01T10:02:52.372Z,98676.75
2023-05-01T10:05:20.368Z,98689.81
2023-05-01T10:08:02.626Z,98691.94
2023-05-01T10:10:30.211Z,98675.94
2023-05-01T10:13:18.122Z,98680.84
2023-05-01T10:15:48.751Z,98697.38
2023-05-01T10:18:17.712Z,98690.13
2023-05-01T10:20:45.271Z,98662.00
2023-05-01T10:23:13.043Z,98657.22
2023-05-01T10:25:42.852Z,98676.94
2023-05-01T10:28:11.516Z,98687.59
2023-05-01T10:30:41.599Z,98676.94
2023-05-01T10:33:09.392Z,98665.00
2023-05-01T10:35:39.570Z,98666.13
2023-05-01T10:38:10.973Z,98668.28
2023-05-01T10:40:45.194Z,98686.72
2023-05-01T10:43:26.094Z,98664.66
2023-05-01T10:45:55.304Z,98700.22
2023-05-01T10:48:56.376Z,98692.38
2023-05-01T10:51:27.748Z,98676.25
2023-05-01T10:54:14.089Z,98696.38
2023-05-01T10:56:45.802Z,98672.63
2023-05-01T10:59:13.324Z,98692.22
2023-05-01T11:01:48.966Z,98682.44
2023-05-01T11:04:22.513Z,98683.94
2023-05-01T11:07:08.601Z,98688.63
2023-05-01T11:09:44.154Z,98681.22
2023-05-01T11:12:16.810Z,98697.34
2023-05-01T11:15:03.884Z,98680.31
2023-05-01T11:17:43.273Z,98664.25
2023-05-01T11:20:36.806Z,98668.16
2023-05-01T11:23:04.394Z,98666.09
2023-05-01T11:25:33.335Z,98670.00
2023-05-01T11:28:02.801Z,98695.75
2023-05-01T11:30:40.703Z,98688.00
2023-05-01T11:33:10.764Z,98688.25
2023-05-01T11:35:39.366Z,98678.03
2023-05-01T11:38:06.851Z,98678.28
2023-05-01T11:40:35.402Z,98695.19
2023-05-01T11:43:05.756Z,98701.69
2023-05-01T11:45:34.604Z,98670.41
2023-05-01T11:48:04.445Z,98684.47
2023-05-01T11:50:36.915Z,98679.66
2023-05-01T11:53:11.938Z,98669.69
2023-05-01T11:55:40.526Z,98686.72
2023-05-01T11:58:08.279Z,98673.38
2023-05-01T12:00:38.461Z,98650.72
2023-05-01T12:03:15.719Z,98650.97
2023-05-01T12:05:45.046Z,98633.81
2023-05-01T12:08:21.039Z,98659.19
2023-05-01T12:10:51.762Z,98657.59
2023-05-01T12:13:20.296Z,98658.56
2023-05-01T12:15:50.012Z,98651.69
2023-05-01T12:18:18.721Z,98636.78
2023-05-01T12:20:48.981Z,98647.91
2023-05-01T12:23:17.313Z,98654.03
2023-05-01T12:25:46.191Z,98636.50
2023-05-01T12:28:16.094Z,98657.69
2023-05-01T12:30:46.141Z,98634.44
2023-05-01T12:33:17.524Z,98638.72
2023-05-01T12:35:47.201Z,98644.06
2023-05-01T12:38:21.027Z,98646.47
2023-05-01T12:40:53.359Z,98639.00
2023-05-01T12:43:35.325Z,98632.59
2023-05-01T12:46:04.675Z,98645.50
2023-05-01T12:48:34.500Z,98626.94
2023-05-01T12:51:02.072Z,98631.50
2023-05-01T12:53:30.342Z,98627.56
2023-05-01T12:55:59.170Z,98634.97
2023-05-01T12:58:37.325Z,98620.47
2023-05-01T13:01:05.409Z,98616.41
2023-05-01T13:03:37.666Z,98583.25
2023-05-01T13:06:07.969Z,98618.66
2023-05-01T13:08:42.580Z,98603.47
2023-05-01T13:11:13.456Z,98606.47
2023-05-01T13:13:41.834Z,98603.47
2023-05-01T13:16:12.643Z,98585.34
2023-05-01T13:18:46.017Z,98589.78
2023-05-01T13:21:16.484Z,98585.59
2023-05-01T13:23:59.165Z,98593.34
2023-05-01T13:26:29.401Z,98581.19
2023-05-01T13:28:58.270Z,98591.94
2023-05-01T13:31:26.686Z,98591.22
2023-05-01T13:33:57.737Z,98578.22
2023-05-01T13:36:27.632Z,98593.22
2023-05-01T13:38:57.405Z,98591.50
2023-05-01T13:41:26.662Z,98595.22
2023-05-01T13:43:56.779Z,98609.19
2023-05-01T13:46:29.383Z,98607.78
2023-05-01T13:49:03.979Z,98604.06
2023-05-01T13:51:32.975Z,98578.22
2023-05-01T13:54:01.614Z,98590.16
2023-05-01T13:56:29.223Z,98567.41
2023-05-01T13:58:56.804Z,98565.16
2023-05-01T14:01:24.578Z,98554.84
2023-05-01T14:03:52.344Z,98551.31
2023-05-01T14:06:21.458Z,98557.03
2023-05-01T14:08:51.318Z,98568.06
2023-05-01T14:11:20.420Z,98567.53
2023-05-01T14:13:51.181Z,98571.56
2023-05-01T14:16:28.665Z,98590.03
2023-05-01T14:18:59.405Z,98569.28
2023-05-01T14:21:28.450Z,98567.13
2023-05-01T14:23:57.483Z,98573.81
2023-05-01T14:26:25.170Z,98564.78
2023-05-01T14:28:52.910Z,98565.41
2023-05-01T14:31:29.735Z,98558.19
2023-05-01T14:33:59.329Z,98554.63
2023-05-01T14:36:32.941Z,98569.59
2023-05-01T14:39:02.712Z,98568.63
2023-05-01T14:41:30.333Z,98559.72
2023-05-01T14:43:57.905Z,98562.69
2023-05-01T14:46:31.428Z,98552.78
2023-05-01T14:49:01.205Z,98546.69
2023-05-01T14:51:29.703Z,98552.66
2023-05-01T14:53:57.236Z,98541.63
2023-05-01T14:56:24.988Z,98560.34
2023-05-01T14:58:52.594Z,98557.47
2023-05-01T15:01:20.492Z,98565.91
2023-05-01T15:03:48.034Z,98546.88
2023-05-01T15:06:16.150Z,98548.72
2023-05-01T15:08:43.775Z,98563.88
2023-05-01T15:11:13.312Z,98548.25
2023-05-01T15:13:42.845Z,98558.47
2023-05-01T15:16:11.274Z,98562.03
2023-05-01T15:18:39.379Z,98557.25
2023-05-01T15:21:07.305Z,98557.69
2023-05-01T15:23:34.844Z,98551.22
2023-05-01T15:26:02.389Z,98554.22
2023-05-01T15:28:30.050Z,98560.50
2023-05-01T15:30:57.680Z,98570.25
2023-05-01T15:33:25.259Z,98563.50
2023-05-01T15:35:53.086Z,98558.97
2023-05-01T15:38:24.343Z,98557.41
2023-05-01T15:40:52.326Z,98559.06
2023-05-01T15:43:19.805Z,98558.03
2023-05-01T15:45:47.356Z,98570.25
2023-05-01T15:48:15.163Z,98570.31
2023-05-01T15:50:42.586Z,98554.00
2023-05-01T15:53:10.085Z,98561.78
2023-05-01T15:55:37.685Z,98566.56
2023-05-01T15:58:05.272Z,98568.56
2023-05-01T16:00:33.168Z,98571.38
2023-05-01T16:03:04.634Z,98578.00
2023-05-01T16:05:32.650Z,98567.28
2023-05-01T16:08:01.915Z,98572.09
2023-05-01T16:10:29.530Z,98576.84
2023-05-01T16:12:58.153Z,98564.03
2023-05-01T16:15:25.743Z,98544.34
2023-05-01T16:17:55.107Z,98534.06
2023-05-01T16:20:24.350Z,98544.84
2023-05-01T16:22:52.319Z,98556.81
2023-05-01T16:25:19.880Z,98570.75
2023-05-01T16:27:47.785Z,98567.78
2023-05-01T16:30:15.583Z,98561.88
2023-05-01T16:32:44.171Z,98561.06
2023-05-01T16:35:16.096Z,98554.91
2023-05-01T16:37:43.649Z,98551.91
2023-05-01T16:40:17.126Z,98551.56
2023-05-01T16:42:54.652Z,98561.94
2023-05-01T16:45:22.797Z,98555.94
2023-05-01T16:47:50.286Z,98562.56
2023-05-01T16:50:18.953Z,98547.16
2023-05-01T16:52:46.440Z,98535.88
2023-05-01T16:55:14.211Z,98536.22
2023-05-01T16:57:43.707Z,98548.03
2023-05-01T17:00:12.633Z,98546.00
2023-05-01T17:02:40.154Z,98556.00
2023-05-01T17:05:08.463Z,98553.22
2023-05-01T17:07:36.118Z,98544.06
2023-05-01T17:10:04.499Z,98547.91
2023-05-01T17:12:32.126Z,98555.16
2023-05-01T17:14:59.624Z,98552.63
2023-05-01T17:17:27.313Z,98553.81
2023-05-01T17:19:54.911Z,98562.38
2023-05-01T17:22:23.770Z,98540.59
2023-05-01T17:24:51.697Z,98537.88
2023-05-01T17:27:19.133Z,98543.19
2023-05-01T17:29:46.956Z,98527.94
2023-05-01T17:32:20.275Z,98537.59
2023-05-01T17:34:58.022Z,98543.00
2023-05-01T17:37:25.600Z,98534.03
2023-05-01T17:39:53.142Z,98520.69
2023-05-01T17:42:21.375Z,98514.34
2023-05-01T17:44:48.869Z,98521.47
2023-05-01T17:47:16.444Z,98523.44
2023-05-01T17:49:43.892Z,98512.88
2023-05-01T17:52:12.580Z,98507.25
2023-05-01T17:54:40.134Z,98511.59
2023-05-01T17:57:08.514Z,98509.41
2023-05-01T17:59:35.980Z,98482.28
2023-05-01T18:02:04.173Z,98493.78
2023-05-01T18:04:31.833Z,98484.41
2023-05-01T18:07:00.907Z,98482.28
2023-05-01T18:09:28.471Z,98481.06
2023-05-01T18:11:56.155Z,98480.88
2023-05-01T18:14:23.720Z,98467.56
2023-05-01T18:16:53.032Z,98477.47
2023-05-01T18:19:21.209Z,98462.47
2023-05-01T18:21:49.313Z,98476.78
2023-05-01T18:24:16.796Z,98479.94
2023-05-01T18:26:44.280Z,98475.00
2023-05-01T18:29:13.012Z,98483.41
2023-05-01T18:31:40.870Z,98468.50
2023-05-01T18:34:10.471Z,98483.09
2023-05-01T18:36:37.988Z,98477.25
2023-05-01T18:39:05.813Z,98488.25
2023-05-01T18:41:33.245Z,98497.31
2023-05-01T18:44:01.744Z,98500.81
2023-05-01T18:46:29.308Z,98493.84
2023-05-01T18:48:56.837Z,98494.03
2023-05-01T18:51:24.390Z,98488.31
2023-05-01T18:53:51.889Z,98509.00
2023-05-01T18:56:19.433Z,98496.06
2023-05-01T18:58:46.900Z,98483.13
2023-05-01T19:01:14.362Z,98480.09
2023-05-01T19:03:42.200Z,98485.16
2023-05-01T19:06:10.779Z,98484.00
2023-05-01T19:08:38.384Z,98473.59
2023-05-01T19:11:06.164Z,98479.22
2023-05-01T19:13:34.034Z,98491.53
2023-05-01T19:16:01.609Z,98491.03
2023-05-01T19:18:29.048Z,98482.16
2023-05-01T19:20:56.482Z,98482.75
2023-05-01T19:23:24.004Z,98489.38
2023-05-01T19:25:51.493Z,98478.25
2023-05-01T19:28:19.080Z,98483.13
2023-05-01T19:30:46.581Z,98472.94
2023-05-01T19:33:14.193Z,98482.47
2023-05-01T19:35:41.773Z,98475.69
2023-05-01T19:38:09.357Z,98478.97
2023-05-01T19:40:37.186Z,98483.13
2023-05-01T19:43:04.693Z,98483.91
2023-05-01T19:45:32.281Z,98481.44
2023-05-01T19:48:00.353Z,98494.13
2023-05-01T19:50:27.880Z,98494.13
2023-05-01T19:52:55.417Z,98498.38
2023-05-01T19:55:22.857Z,98490.50
2023-05-01T19:57:50.478Z,98480.72
2023-05-01T20:00:18.041Z,98479.81
2023-05-01T20:02:45.677Z,98486.03
2023-05-01T20:05:13.963Z,98479.63
2023-05-01T20:07:41.578Z,98468.63
2023-05-01T20:10:10.071Z,98484.69
2023-05-01T20:12:38.449Z,98482.09
2023-05-01T20:15:06.386Z,98477.47
2023-05-01T20:17:34.437Z,98482.75
2023-05-01T20:20:02.054Z,98467.75
2023-05-01T20:22:30.227Z,98458.75
2023-05-01T20:24:57.908Z,98455.38
2023-05-01T20:27:26.482Z,98469.88
2023-05-01T20:29:54.157Z,98452.47
2023-05-01T20:32:21.593Z,98442.03
2023-05-01T20:34:49.115Z,98441.47
2023-05-01T20:37:16.827Z,98446.50
2023-05-01T20:39:44.492Z,98445.72
2023-05-01T20:42:11.994Z,98423.50
2023-05-01T20:44:40.132Z,98441.56
2023-05-01T20:47:07.625Z,98446.31
2023-05-01T20:49:35.768Z,98426.69
2023-05-01T20:52:03.264Z,98424.97
2023-05-01T20:54:32.719Z,98430.69
2023-05-01T20:57:02.164Z,98429.69
2023-05-01T20:59:29.864Z,98434.63
2023-05-01T21:01:57.609Z,98443.63
2023-05-01T21:04:25.341Z,98433.25
2023-05-01T21:06:53.063Z,98437.34
2023-05-01T21:09:20.673Z,98438.69
2023-05-01T21:11:48.192Z,98423.41
2023-05-01T21:14:16.595Z,98430.94
2023-05-01T21:16:44.167Z,98424.00
2023-05-01T21:19:13.958Z,98433.75
2023-05-01T21:21:41.596Z,98437.88
2023-05-01T21:24:09.667Z,98428.44
2023-05-01T21:26:37.365Z,98420.41
2023-05-01T21:29:04.875Z,98415.09
2023-05-01T21:31:32.956Z,98425.56
2023-05-01T21:34:04.629Z,98401.44
2023-05-01T21:36:32.879Z,98400.47
2023-05-01T21:39:03.859Z,98416.63
2023-05-01T21:41:31.904Z,98400.34
2023-05-01T21:43:59.474Z,98407.16
2023-05-01T21:46:27.098Z,98408.84
2023-05-01T21:48:54.560Z,98408.19
2023-05-01T21:51:33.252Z,98417.56
2023-05-01T21:54:01.945Z,98425.00
2023-05-01T21:56:29.815Z,98422.56
2023-05-01T21:59:02.430Z,98420.28
2023-05-01T22:01:30.133Z,98416.91
2023-05-01T22:03:58.508Z,98407.22
2023-05-01T22:06:26.087Z,98418.03
2023-05-01T22:08:53.693Z,98418.50
2023-05-01T22:11:24.780Z,98408.97
2023-05-01T22:13:52.207Z,98413.44
2023-05-01T22:16:19.848Z,98427.28
2023-05-01T22:18:49.794Z,98414.34
2023-05-01T22:21:17.446Z,98396.19
2023-05-01T22:23:45.052Z,98387.69
2023-05-01T22:26:12.480Z,98385.28
2023-05-01T22:28:39.969Z,98393.38
2023-05-01T22:31:07.944Z,98401.56
2023-05-01T22:33:35.423Z,98396.06
2023-05-01T22:36:06.061Z,98394.16
2023-05-01T22:38:34.879Z,98382.72
2023-05-01T22:41:02.551Z,98380.78
2023-05-01T22:43:29.992Z,98387.00
2023-05-01T22:45:57.471Z,98373.75
2023-05-01T22:48:25.061Z,98391.47
2023-05-01T22:50:52.483Z,98390.81
2023-05-01T22:53:19.996Z,98388.09
2023-05-01T22:55:47.486Z,98376.78
2023-05-01T22:58:15.057Z,98401.13
2023-05-01T23:00:42.452Z,98390.38
2023-05-01T23:03:10.125Z,98402.00
2023-05-01T23:05:38.112Z,98384.75
2023-05-01T23:08:05.955Z,98392.47
2023-05-01T23:10:33.950Z,98418.41
2023-05-01T23:13:01.810Z,98397.56
2023-05-01T23:15:29.229Z,98411.44
2023-05-01T23:17:56.750Z,98416.63
2023-05-01T23:20:24.949Z,98420.22
2023-05-01T23:22:52.426Z,98424.47
2023-05-01T23:25:26.109Z,98431.19
2023-05-01T23:27:55.659Z,98431.28
2023-05-01T23:30:23.574Z,98435.91
2023-05-01T23:32:51.705Z,98427.59
2023-05-01T23:35:25.285Z,98441.97
2023-05-01T23:37:54.090Z,98444.44
2023-05-01T23:40:21.889Z,98454.53
2023-05-01T23:42:50.081Z,98441.75
2023-05-01T23:45:17.710Z,98447.91
2023-05-01T23:47:45.183Z,98445.00
2023-05-01T23:50:12.954Z,98444.88
2023-05-01T23:52:40.653Z,98449.16
2023-05-01T23:55:08.385Z,98453.31
2023-05-01T23:57:35.781Z,98446.03
